Time;durP1;ratioP1;P1;durP2;ratioP2;P2;SDS_P1;SDS_P2;PMS_P1;PMS_P2;Temp;Humidity;BMP_temperature;BMP_pressure;BME280_temperature;BME280_humidity;BME280_pressure;Samples;Min_cycle;Max_cycle;Signal;HPM_P1;HPM_P2
2022/06/28 00:01:51;;;;;;;;;;;;;;;14.34;88.16;102061.03;5073675;28;19948;-36
2022/06/28 00:04:17;;;;;;;;;;;;;;;14.34;87.97;102063.75;5073475;28;19927;-36
2022/06/28 00:06:42;;;;;;;;;;;;;;;14.31;88.00;102064.22;5074419;28;19913;-36
2022/06/28 00:09:08;;;;;;;;;;;;;;;14.29;88.18;102062.75;5073320;28;19919;-36
2022/06/28 00:11:33;;;;;;;;;;;;;;;14.28;88.37;102058.38;5073853;28;19916;-36
2022/06/28 00:13:58;;;;;;;;;;;;;;;14.26;88.08;102065.97;5073582;28;19954;-36
2022/06/28 00:16:24;;;;;;;;;;;;;;;14.23;88.07;102061.78;5073391;28;20357;-36
2022/06/28 00:18:51;;;;;;;;;;;;;;;14.21;88.07;102063.09;5073778;28;20053;-36
2022/06/28 00:21:16;;;;;;;;;;;;;;;14.18;88.31;102062.47;5073300;28;19913;-36
2022/06/28 00:23:42;;;;;;;;;;;;;;;14.16;88.50;102067.31;5073034;28;19919;-36
2022/06/28 00:26:08;;;;;;;;;;;;;;;14.13;87.91;102067.75;5073246;28;19913;-36
2022/06/28 00:28:34;;;;;;;;;;;;;;;14.12;88.36;102057.94;5072855;28;20019;-36
2022/06/28 00:31:00;;;;;;;;;;;;;;;14.09;88.19;102052.91;5106037;28;19963;-36
2022/06/28 00:33:26;;;;;;;;;;;;;;;14.05;88.02;102068.03;5074187;28;19912;-36
2022/06/28 00:35:51;;;;;;;;;;;;;;;14.05;88.37;102064.47;5077400;28;19913;-36
2022/06/28 00:38:16;;;;;;;;;;;;;;;14.03;88.00;102069.31;5077255;28;20098;-36
2022/06/28 00:40:46;;;;;;;;;;;;;;;13.99;88.73;102066.22;5078014;28;19912;-36
2022/06/28 00:43:12;;;;;;;;;;;;;;;13.96;88.27;102072.13;5077525;28;20007;-36
2022/06/28 00:45:37;;;;;;;;;;;;;;;13.93;88.74;102077.97;5077692;28;19913;-36
2022/06/28 00:48:02;;;;;;;;;;;;;;;13.90;88.57;102078.41;5076082;28;19939;-36
2022/06/28 00:50:28;;;;;;;;;;;;;;;13.84;88.94;102063.00;5076980;28;20265;-36
2022/06/28 00:53:22;;;;;;;;;;;;;;;13.88;88.97;102077.81;5077340;28;19917;-36
2022/06/28 00:55:48;;;;;;;;;;;;;;;13.84;88.79;102063.84;5095444;28;19955;-36
2022/06/28 00:58:14;;;;;;;;;;;;;;;13.82;89.26;102073.28;5095016;28;19963;-36
2022/06/28 01:00:41;;;;;;;;;;;;;;;13.80;88.98;102076.19;5094853;28;19912;-36
2022/06/28 01:03:07;;;;;;;;;;;;;;;13.80;88.95;102078.94;5094506;28;19916;-36
2022/06/28 01:05:33;;;;;;;;;;;;;;;13.77;89.14;102078.56;5094913;28;20389;-36
2022/06/28 01:07:59;;;;;;;;;;;;;;;13.75;89.19;102070.59;5095117;28;19947;-36
2022/06/28 01:10:26;;;;;;;;;;;;;;;13.71;89.35;102079.41;5094601;28;20403;-36
2022/06/28 01:12:51;;;;;;;;;;;;;;;13.69;89.48;102076.94;5095099;28;20369;-36
2022/06/28 01:15:16;;;;;;;;;;;;;;;13.68;89.18;102077.16;5095206;28;19916;-36
2022/06/28 01:17:41;;;;;;;;;;;;;;;13.65;89.13;102087.41;5094837;28;19916;-36
2022/06/28 01:20:07;;;;;;;;;;;;;;;13.63;89.51;102080.56;5094498;28;19911;-36
2022/06/28 01:22:40;;;;;;;;;;;;;;;13.62;89.35;102087.03;5094312;28;19912;-36
2022/06/28 01:25:06;;;;;;;;;;;;;;;13.60;89.45;102089.97;5094204;28;19912;-36
2022/06/28 01:27:31;;;;;;;;;;;;;;;13.58;89.07;102086.66;5094228;28;19963;-36
2022/06/28 01:29:56;;;;;;;;;;;;;;;13.56;88.97;102090.63;5094101;28;19951;-36
2022/06/28 01:32:22;;;;;;;;;;;;;;;13.54;89.25;102090.84;5084242;28;19982;-36
2022/06/28 01:34:47;;;;;;;;;;;;;;;13.52;89.57;102081.28;5076651;28;19919;-36
2022/06/28 01:37:12;;;;;;;;;;;;;;;13.49;89.64;102090.69;5076496;28;19966;-36
2022/06/28 01:39:37;;;;;;;;;;;;;;;13.47;89.31;102095.50;5075690;28;19917;-36
2022/06/28 01:42:03;;;;;;;;;;;;;;;13.44;89.31;102090.50;5076437;28;19955;-36
2022/06/28 01:44:28;;;;;;;;;;;;;;;13.43;89.42;102093.44;5075823;28;20002;-36
2022/06/28 01:46:56;;;;;;;;;;;;;;;13.40;89.70;102089.28;5076433;28;19998;-36
2022/06/28 01:49:21;;;;;;;;;;;;;;;13.37;89.49;102100.56;5076392;28;19999;-36
2022/06/28 01:51:46;;;;;;;;;;;;;;;13.36;89.70;102101.63;5076253;28;20004;-36
2022/06/28 01:54:12;;;;;;;;;;;;;;;13.34;89.60;102101.84;5076535;28;19999;-36
2022/06/28 01:56:37;;;;;;;;;;;;;;;13.32;90.01;102093.09;5076377;28;20006;-36
2022/06/28 01:59:02;;;;;;;;;;;;;;;13.31;89.52;102102.28;5076572;28;20353;-36
2022/06/28 02:01:28;;;;;;;;;;;;;;;13.29;89.93;102104.41;5076239;28;20369;-36
2022/06/28 02:03:53;;;;;;;;;;;;;;;13.26;90.05;102098.56;5076220;28;20256;-36
2022/06/28 02:06:18;;;;;;;;;;;;;;;13.23;90.05;102099.84;5075844;28;19912;-36
2022/06/28 02:08:44;;;;;;;;;;;;;;;13.21;89.86;102096.47;5075974;28;20268;-36
2022/06/28 02:11:09;;;;;;;;;;;;;;;13.18;89.78;102102.34;5075234;28;20365;-36
2022/06/28 02:13:34;;;;;;;;;;;;;;;13.14;89.83;102107.38;5075812;28;20321;-36
2022/06/28 02:16:00;;;;;;;;;;;;;;;13.14;89.79;102106.56;5075905;28;20258;-36
2022/06/28 02:18:25;;;;;;;;;;;;;;;13.13;90.07;102107.59;5075818;28;19916;-36
2022/06/28 02:20:51;;;;;;;;;;;;;;;13.11;89.92;102112.41;5075570;28;20376;-36
2022/06/28 02:23:16;;;;;;;;;;;;;;;13.10;90.07;102106.13;5074934;28;19913;-36
2022/06/28 02:25:41;;;;;;;;;;;;;;;13.08;89.92;102115.56;5075294;28;19916;-36
2022/06/28 02:28:06;;;;;;;;;;;;;;;13.08;89.76;102127.25;5075491;28;19995;-36
2022/06/28 02:30:31;;;;;;;;;;;;;;;13.07;89.66;102122.03;5075044;28;19912;-36
2022/06/28 02:32:57;;;;;;;;;;;;;;;13.05;90.06;102126.84;5075187;28;19919;-36
2022/06/28 02:40:50;;;;;;;;;;;;;;;12.94;90.24;102128.38;5074993;28;20371;-35
2022/06/28 02:43:15;;;;;;;;;;;;;;;12.93;90.35;102136.72;5075158;28;19913;-36
2022/06/28 02:45:42;;;;;;;;;;;;;;;12.91;90.29;102134.22;5074600;28;20426;-36
2022/06/28 02:48:07;;;;;;;;;;;;;;;12.89;90.59;102139.88;5074992;28;19919;-36
2022/06/28 02:50:32;;;;;;;;;;;;;;;12.87;90.85;102143.84;5074630;28;19920;-36
2022/06/28 02:52:58;;;;;;;;;;;;;;;12.83;91.22;102148.03;5074752;28;19955;-36
2022/06/28 02:55:23;;;;;;;;;;;;;;;12.78;90.89;102155.97;5074611;28;19916;-36
2022/06/28 02:57:48;;;;;;;;;;;;;;;12.78;90.81;102158.69;5074210;28;19989;-36
2022/06/28 03:00:15;;;;;;;;;;;;;;;12.78;90.57;102166.84;5074071;28;19920;-36
2022/06/28 03:02:41;;;;;;;;;;;;;;;12.76;90.75;102158.91;5074435;28;20234;-36
2022/06/28 03:05:07;;;;;;;;;;;;;;;12.76;90.50;102166.22;5074402;28;19919;-36
2022/06/28 03:07:32;;;;;;;;;;;;;;;12.78;90.54;102170.38;5074395;28;19916;-36
2022/06/28 03:09:57;;;;;;;;;;;;;;;12.77;90.36;102168.72;5073991;28;19912;-35
2022/06/28 03:12:23;;;;;;;;;;;;;;;12.75;90.43;102172.72;5073952;28;19916;-36
2022/06/28 03:14:48;;;;;;;;;;;;;;;12.75;90.60;102170.81;5073905;28;19913;-36
2022/06/28 03:17:13;;;;;;;;;;;;;;;12.72;90.77;102173.13;5074228;28;19913;-36
2022/06/28 03:19:38;;;;;;;;;;;;;;;12.70;90.37;102173.34;5073867;28;20002;-36
2022/06/28 03:22:04;;;;;;;;;;;;;;;12.70;90.87;102175.22;5074625;28;19912;-36
2022/06/28 03:24:29;;;;;;;;;;;;;;;12.70;91.36;102175.22;5074057;28;19920;-35
2022/06/28 03:26:54;;;;;;;;;;;;;;;12.67;91.14;102179.19;5073200;28;19961;-35
2022/06/28 03:29:19;;;;;;;;;;;;;;;12.63;91.17;102176.06;5073850;28;19919;-36
2022/06/28 03:31:45;;;;;;;;;;;;;;;12.63;91.08;102177.94;5074225;28;19920;-36
2022/06/28 03:34:10;;;;;;;;;;;;;;;12.63;90.75;102180.66;5074099;28;19913;-35
2022/06/28 03:36:35;;;;;;;;;;;;;;;12.65;90.71;102188.59;5073880;28;20006;-37
2022/06/28 03:39:00;;;;;;;;;;;;;;;12.66;91.68;102196.53;5074131;28;19956;-35
2022/06/28 03:41:25;;;;;;;;;;;;;;;12.61;91.61;102186.31;5073690;28;20353;-36
2022/06/28 03:43:51;;;;;;;;;;;;;;;12.62;91.84;102189.84;5073720;28;19934;-36
2022/06/28 03:46:17;;;;;;;;;;;;;;;12.62;91.50;102190.69;5074212;28;19923;-36
2022/06/28 03:48:43;;;;;;;;;;;;;;;12.67;91.02;102197.34;5073655;28;20420;-36
2022/06/28 03:51:08;;;;;;;;;;;;;;;12.67;91.08;102197.34;5074193;28;19917;-35
2022/06/28 03:53:33;;;;;;;;;;;;;;;12.67;90.94;102191.94;5073592;28;19912;-35
2022/06/28 03:55:59;;;;;;;;;;;;;;;12.62;90.84;102195.28;5074077;28;19916;-35
2022/06/28 03:58:24;;;;;;;;;;;;;;;12.63;91.21;102194.22;5073551;28;20352;-36
2022/06/28 04:00:49;;;;;;;;;;;;;;;12.62;91.16;102192.56;5073573;28;20433;-36
2022/06/28 04:03:14;;;;;;;;;;;;;;;12.62;90.82;102193.38;5089100;28;19934;-35
2022/06/28 04:05:39;;;;;;;;;;;;;;;12.63;91.28;102188.78;5073205;28;19913;-36
2022/06/28 04:08:05;;;;;;;;;;;;;;;12.60;91.51;102194.66;5072181;28;19958;-36
2022/06/28 04:10:30;;;;;;;;;;;;;;;12.59;91.39;102195.69;5073831;28;19958;-36
2022/06/28 04:12:55;;;;;;;;;;;;;;;12.61;91.19;102204.47;5073710;28;19913;-36
2022/06/28 04:15:20;;;;;;;;;;;;;;;12.62;91.31;102200.69;5073095;28;19912;-35
2022/06/28 04:17:46;;;;;;;;;;;;;;;12.63;91.20;102195.06;5073624;28;19919;-36
2022/06/28 04:20:11;;;;;;;;;;;;;;;12.66;91.19;102198.41;5073080;28;19919;-36
2022/06/28 04:22:36;;;;;;;;;;;;;;;12.68;91.03;102201.72;5073892;28;19919;-36
2022/06/28 04:25:01;;;;;;;;;;;;;;;12.68;91.52;102205.28;5073468;28;20382;-35
2022/06/28 04:27:27;;;;;;;;;;;;;;;12.67;91.10;102208.22;5073766;28;19912;-35
2022/06/28 04:29:52;;;;;;;;;;;;;;;12.68;91.21;102204.44;5073103;28;20003;-35
2022/06/28 04:32:17;;;;;;;;;;;;;;;12.73;91.06;102212.78;5073235;28;19916;-36
2022/06/28 04:34:42;;;;;;;;;;;;;;;12.77;91.07;102205.88;5073178;28;19916;-36
2022/06/28 04:37:07;;;;;;;;;;;;;;;12.83;90.91;102203.19;5073195;28;19912;-36
2022/06/28 04:39:33;;;;;;;;;;;;;;;12.86;91.30;102200.03;5072847;28;19916;-36
2022/06/28 04:41:58;;;;;;;;;;;;;;;12.90;90.70;102200.44;5073712;28;19912;-36
2022/06/28 04:44:23;;;;;;;;;;;;;;;12.95;90.96;102206.06;5073180;28;20374;-35
2022/06/28 04:46:48;;;;;;;;;;;;;;;13.01;90.98;102202.47;5073041;28;19912;-36
2022/06/28 04:49:13;;;;;;;;;;;;;;;13.07;91.35;102204.31;5072728;28;20012;-36
2022/06/28 04:51:38;;;;;;;;;;;;;;;13.12;90.89;102198.25;5073273;28;19919;-36
2022/06/28 04:54:04;;;;;;;;;;;;;;;13.21;90.58;102201.56;5072969;28;19918;-36
2022/06/28 04:56:29;;;;;;;;;;;;;;;13.30;90.69;102208.47;5072908;28;19912;-36
2022/06/28 04:58:54;;;;;;;;;;;;;;;13.39;90.90;102204.44;5072670;28;19921;-35
2022/06/28 05:01:19;;;;;;;;;;;;;;;13.45;90.13;102206.28;5072938;28;19916;-36
2022/06/28 05:03:45;;;;;;;;;;;;;;;13.52;90.01;102206.28;5072813;28;19916;-36
2022/06/28 05:06:11;;;;;;;;;;;;;;;13.61;90.19;102202.22;5073225;28;19920;-36
2022/06/28 05:08:36;;;;;;;;;;;;;;;13.70;89.92;102206.34;5072495;28;19912;-36
2022/06/28 05:11:02;;;;;;;;;;;;;;;13.79;89.97;102205.03;5073412;28;19920;-36
2022/06/28 05:13:27;;;;;;;;;;;;;;;13.88;89.82;102211.06;5072796;28;19981;-36
2022/06/28 05:15:52;;;;;;;;;;;;;;;13.91;89.46;102216.06;5072769;28;19916;-36
2022/06/28 05:18:18;;;;;;;;;;;;;;;13.96;89.10;102216.25;5072450;28;19912;-36
2022/06/28 05:20:43;;;;;;;;;;;;;;;14.05;89.45;102211.34;5075859;28;20261;-37
2022/06/28 05:23:08;;;;;;;;;;;;;;;14.14;89.39;102210.03;5076172;28;19974;-36
2022/06/28 05:25:33;;;;;;;;;;;;;;;14.23;89.10;102211.41;5076935;28;19916;-36
2022/06/28 05:27:58;;;;;;;;;;;;;;;14.31;88.69;102199.44;5076651;28;19916;-36
2022/06/28 05:30:24;;;;;;;;;;;;;;;14.36;88.19;102192.25;5075931;28;19913;-36
2022/06/28 05:32:49;;;;;;;;;;;;;;;14.41;88.55;102191.59;5077027;28;20269;-36
2022/06/28 05:35:14;;;;;;;;;;;;;;;14.46;87.84;102194.47;5076253;28;20406;-36
2022/06/28 05:37:39;;;;;;;;;;;;;;;14.54;88.21;102194.22;5075952;28;20422;-36
2022/06/28 05:40:05;;;;;;;;;;;;;;;14.62;87.37;102196.63;5076038;28;19935;-36
2022/06/28 05:42:30;;;;;;;;;;;;;;;14.72;88.10;102206.19;5076868;28;19919;-36
2022/06/28 05:44:55;;;;;;;;;;;;;;;14.79;87.46;102196.06;5076104;28;20365;-36
2022/06/28 05:47:20;;;;;;;;;;;;;;;14.88;87.10;102200.13;5075954;28;19958;-36
2022/06/28 05:49:46;;;;;;;;;;;;;;;14.92;86.75;102193.16;5075583;28;19966;-36
2022/06/28 05:52:11;;;;;;;;;;;;;;;14.96;87.04;102188.09;5075612;28;19947;-36
2022/06/28 05:54:36;;;;;;;;;;;;;;;15.03;86.45;102186.97;5076126;28;19956;-36
2022/06/28 05:57:02;;;;;;;;;;;;;;;15.09;85.26;102183.34;5076094;28;19916;-36
2022/06/28 05:59:27;;;;;;;;;;;;;;;15.16;86.07;102181.34;5075913;28;20337;-36
2022/06/28 06:01:54;;;;;;;;;;;;;;;15.18;85.46;102181.97;5075247;28;19916;-36
2022/06/28 06:04:20;;;;;;;;;;;;;;;15.22;85.59;102173.31;5076121;28;19918;-36
2022/06/28 06:06:45;;;;;;;;;;;;;;;15.25;84.67;102176.41;5075735;28;19912;-36
2022/06/28 06:09:10;;;;;;;;;;;;;;;15.28;85.41;102186.06;5075491;28;19914;-36
2022/06/28 06:11:35;;;;;;;;;;;;;;;15.36;85.62;102189.25;5075859;28;19912;-36
2022/06/28 06:14:01;;;;;;;;;;;;;;;15.45;85.46;102190.59;5075461;28;19920;-36
2022/06/28 06:16:26;;;;;;;;;;;;;;;15.53;84.99;102188.63;5075247;28;19954;-36
2022/06/28 06:18:51;;;;;;;;;;;;;;;15.62;85.41;102190.81;5075469;28;20319;-36
2022/06/28 06:21:16;;;;;;;;;;;;;;;15.69;84.01;102193.47;5075971;28;19913;-36
2022/06/28 06:23:41;;;;;;;;;;;;;;;15.75;83.85;102189.78;5075041;28;19933;-36
2022/06/28 06:26:07;;;;;;;;;;;;;;;15.78;83.25;102191.25;5075566;28;19912;-37
2022/06/28 06:28:34;;;;;;;;;;;;;;;15.83;83.44;102192.19;5074819;28;19919;-36
2022/06/28 06:31:00;;;;;;;;;;;;;;;15.89;83.79;102196.72;5074187;28;19920;-36
2022/06/28 06:33:25;;;;;;;;;;;;;;;15.96;83.49;102204.81;5075394;28;19912;-36
2022/06/28 06:35:50;;;;;;;;;;;;;;;15.98;82.92;102194.47;5075400;28;19912;-36
2022/06/28 06:38:15;;;;;;;;;;;;;;;16.03;83.14;102197.34;5075369;28;19964;-36
2022/06/28 06:40:40;;;;;;;;;;;;;;;16.05;82.94;102195.19;5075238;28;19918;-36
2022/06/28 06:43:06;;;;;;;;;;;;;;;16.09;82.11;102201.03;5075545;28;19912;-36
2022/06/28 06:45:31;;;;;;;;;;;;;;;16.10;82.08;102203.50;5074646;28;20300;-36
2022/06/28 06:47:56;;;;;;;;;;;;;;;16.18;82.74;102205.91;5075196;28;19919;-36
2022/06/28 06:50:22;;;;;;;;;;;;;;;16.23;82.07;102208.75;5074777;28;19913;-36
2022/06/28 06:52:48;;;;;;;;;;;;;;;16.27;81.03;102211.03;5075341;28;19916;-36
2022/06/28 06:55:13;;;;;;;;;;;;;;;16.26;78.62;102209.38;5074741;28;19923;-36
2022/06/28 06:57:39;;;;;;;;;;;;;;;16.29;79.42;102212.44;5075404;28;19913;-36
2022/06/28 07:00:05;;;;;;;;;;;;;;;16.31;79.11;102207.59;5075198;28;19935;-36
2022/06/28 07:02:30;;;;;;;;;;;;;;;16.39;80.26;102209.94;5075003;28;19916;-36
2022/06/28 07:04:55;;;;;;;;;;;;;;;16.48;79.28;102214.00;5075178;28;19937;-36
2022/06/28 07:07:20;;;;;;;;;;;;;;;16.51;78.73;102209.13;5074440;28;19985;-36
2022/06/28 07:09:46;;;;;;;;;;;;;;;16.52;78.27;102225.28;5074291;28;19912;-36
2022/06/28 07:12:11;;;;;;;;;;;;;;;16.57;78.55;102214.47;5074333;28;19919;-36
2022/06/28 07:14:36;;;;;;;;;;;;;;;16.66;78.91;102212.22;5074075;28;20002;-36
2022/06/28 07:17:01;;;;;;;;;;;;;;;16.68;75.73;102221.81;5074289;28;20010;-36
2022/06/28 07:19:26;;;;;;;;;;;;;;;16.76;77.76;102222.56;5074251;28;20005;-36
2022/06/28 07:21:52;;;;;;;;;;;;;;;16.82;76.32;102218.88;5074293;28;19919;-36
2022/06/28 07:24:17;;;;;;;;;;;;;;;16.84;76.14;102214.84;5074135;28;20095;-36
2022/06/28 07:26:43;;;;;;;;;;;;;;;16.87;74.99;102216.25;5074484;28;20368;-36
2022/06/28 07:29:08;;;;;;;;;;;;;;;16.92;74.56;102213.63;5073985;28;20006;-36
2022/06/28 07:31:33;;;;;;;;;;;;;;;16.94;73.98;102216.97;5073986;28;19918;-36
2022/06/28 07:33:59;;;;;;;;;;;;;;;16.98;74.37;102223.59;5073885;28;19912;-36
2022/06/28 07:36:24;;;;;;;;;;;;;;;17.05;74.11;102220.75;5073000;28;19919;-36
2022/06/28 07:38:50;;;;;;;;;;;;;;;17.11;74.45;102214.31;5073888;28;19912;-36
2022/06/28 07:41:15;;;;;;;;;;;;;;;17.13;70.86;102213.00;5074491;28;20246;-36
2022/06/28 07:43:40;;;;;;;;;;;;;;;17.14;71.83;102214.66;5073913;28;20008;-36
2022/06/28 07:46:05;;;;;;;;;;;;;;;17.20;72.79;102216.44;5074771;28;19916;-36
2022/06/28 07:48:31;;;;;;;;;;;;;;;17.27;73.21;102221.75;5073352;28;19916;-36
2022/06/28 07:53:40;;;;;;;;;;;;;;;17.39;71.19;102210.78;5073757;28;19920;-36
2022/06/28 07:56:05;;;;;;;;;;;;;;;17.52;72.51;102221.44;5074078;28;19913;-36
2022/06/28 07:58:30;;;;;;;;;;;;;;;17.60;71.03;102215.56;5073989;28;19919;-36
2022/06/28 08:00:55;;;;;;;;;;;;;;;17.68;71.31;102211.63;5073308;28;19912;-36
2022/06/28 08:03:20;;;;;;;;;;;;;;;17.77;69.77;102212.91;5073362;28;19923;-36
2022/06/28 08:05:46;;;;;;;;;;;;;;;17.83;71.56;102205.63;5073531;28;19912;-36
2022/06/28 08:08:11;;;;;;;;;;;;;;;17.89;70.87;102202.72;5072205;28;19912;-36
2022/06/28 08:10:36;;;;;;;;;;;;;;;17.95;67.48;102203.63;5073047;28;20007;-36
2022/06/28 08:13:02;;;;;;;;;;;;;;;17.95;67.36;102196.25;5073678;28;19923;-36
2022/06/28 08:15:28;;;;;;;;;;;;;;;18.00;68.25;102201.00;5073196;28;20330;-37
2022/06/28 08:17:54;;;;;;;;;;;;;;;18.09;68.59;102198.69;5073320;28;19916;-37
2022/06/28 08:20:20;;;;;;;;;;;;;;;18.12;64.21;102203.66;5073367;28;19916;-37
2022/06/28 08:22:45;;;;;;;;;;;;;;;18.18;67.79;102203.50;5073349;28;19912;-36
2022/06/28 08:25:10;;;;;;;;;;;;;;;18.23;68.05;102195.34;5073103;28;19912;-36
2022/06/28 08:27:36;;;;;;;;;;;;;;;18.35;68.14;102195.28;5074046;28;19920;-37
2022/06/28 08:30:01;;;;;;;;;;;;;;;18.46;64.22;102194.34;5073244;28;19912;-37
2022/06/28 08:32:26;;;;;;;;;;;;;;;18.57;65.99;102195.31;5073270;28;19919;-37
2022/06/28 08:34:51;;;;;;;;;;;;;;;18.70;67.11;102189.53;5073236;28;19912;-36
2022/06/28 08:37:17;;;;;;;;;;;;;;;18.84;65.39;102191.88;5073149;28;19919;-37
2022/06/28 08:39:42;;;;;;;;;;;;;;;18.94;64.37;102178.34;5072839;28;20276;-37
2022/06/28 08:42:09;;;;;;;;;;;;;;;19.02;60.82;102180.59;5073871;28;19913;-37
2022/06/28 08:44:35;;;;;;;;;;;;;;;19.10;62.74;102187.56;5073383;28;19962;-37
2022/06/28 08:47:01;;;;;;;;;;;;;;;19.20;64.57;102182.19;5073161;28;19913;-36
2022/06/28 08:49:35;;;;;;;;;;;;;;;19.33;64.35;102173.59;5072945;28;20272;-36
2022/06/28 08:52:01;;;;;;;;;;;;;;;19.44;61.36;102163.53;5073102;28;19912;-36
2022/06/28 08:54:26;;;;;;;;;;;;;;;19.50;61.55;102170.72;5074247;28;20330;-36
2022/06/28 08:56:51;;;;;;;;;;;;;;;19.60;59.79;102164.56;5076923;28;19991;-37
2022/06/28 08:59:17;;;;;;;;;;;;;;;19.67;59.62;102159.69;5077270;28;19921;-37
2022/06/28 09:01:42;;;;;;;;;;;;;;;19.77;62.78;102166.09;5077188;28;20335;-36
2022/06/28 09:04:09;;;;;;;;;;;;;;;19.90;61.04;102164.81;5076894;28;20365;-37
2022/06/28 09:06:35;;;;;;;;;;;;;;;19.97;61.24;102164.63;5077160;28;19916;-37
2022/06/28 09:09:00;;;;;;;;;;;;;;;20.03;59.20;102152.59;5076603;28;19920;-37
2022/06/28 09:11:35;;;;;;;;;;;;;;;20.08;58.62;102160.84;5076423;28;19920;-38
2022/06/28 09:14:00;;;;;;;;;;;;;;;20.22;60.64;102156.56;5109957;28;19958;-36
2022/06/28 09:16:25;;;;;;;;;;;;;;;20.39;61.64;102155.56;5077162;28;19912;-36
2022/06/28 09:18:50;;;;;;;;;;;;;;;20.49;58.71;102150.16;5076810;28;20280;-36
2022/06/28 09:21:17;;;;;;;;;;;;;;;20.57;57.44;102155.16;5076457;28;20262;-36
2022/06/28 09:23:44;;;;;;;;;;;;;;;20.61;56.31;102148.06;5076514;28;19921;-36
2022/06/28 09:26:11;;;;;;;;;;;;;;;20.71;59.39;102150.84;5077052;28;19948;-36
2022/06/28 09:28:41;;;;;;;;;;;;;;;20.77;54.81;102147.03;5076448;28;20349;-37
2022/06/28 09:31:25;;;;;;;;;;;;;;;20.83;55.88;102147.88;5076848;28;19930;-37
2022/06/28 09:34:00;;;;;;;;;;;;;;;20.91;56.25;102141.84;5076091;28;19912;-37
2022/06/28 09:36:25;;;;;;;;;;;;;;;21.05;56.78;102131.19;5075873;28;19913;-37
2022/06/28 09:38:53;;;;;;;;;;;;;;;21.20;52.51;102133.16;5076267;28;20011;-37
2022/06/28 09:41:19;;;;;;;;;;;;;;;21.25;56.22;102131.25;5076040;28;19918;-36
2022/06/28 09:43:52;;;;;;;;;;;;;;;21.26;53.87;102132.88;5076495;28;19912;-37
2022/06/28 09:46:17;;;;;;;;;;;;;;;21.39;55.12;102136.25;5076392;28;19912;-37
2022/06/28 09:48:43;;;;;;;;;;;;;;;21.52;55.50;102130.22;5075569;28;19938;-37
2022/06/28 09:51:08;;;;;;;;;;;;;;;21.62;55.14;102130.25;5075970;28;19938;-37
2022/06/28 09:53:38;;;;;;;;;;;;;;;21.67;50.65;102135.75;5075698;28;19919;-37
2022/06/28 09:56:05;;;;;;;;;;;;;;;21.62;53.55;102121.97;5075852;28;20332;-37
2022/06/28 09:58:31;;;;;;;;;;;;;;;21.61;51.87;102123.06;5075805;28;20063;-37
2022/06/28 10:00:56;;;;;;;;;;;;;;;21.67;51.67;102113.72;5076472;28;19912;-37
2022/06/28 10:03:21;;;;;;;;;;;;;;;21.70;52.75;102118.66;5076085;28;19916;-37
2022/06/28 10:05:46;;;;;;;;;;;;;;;21.74;53.18;102106.00;5075711;28;20349;-37
2022/06/28 10:08:12;;;;;;;;;;;;;;;21.88;53.57;102110.97;5075768;28;19919;-37
2022/06/28 10:10:40;;;;;;;;;;;;;;;21.89;52.71;102105.16;5076338;28;20428;-37
2022/06/28 10:16:04;;;;;;;;;;;;;;;22.13;54.25;102112.88;5075891;28;19919;-37
2022/06/28 10:18:31;;;;;;;;;;;;;;;22.23;50.52;102112.88;5075674;28;19959;-37
2022/06/28 10:20:56;;;;;;;;;;;;;;;22.33;52.99;102105.41;5075462;28;19912;-37
2022/06/28 10:23:27;;;;;;;;;;;;;;;22.42;50.15;102102.91;5075453;28;19935;-37
2022/06/28 10:26:02;;;;;;;;;;;;;;;22.47;51.91;102102.88;5075347;28;19987;-37
2022/06/28 10:28:32;;;;;;;;;;;;;;;22.47;49.62;102107.56;5075626;28;19916;-37
2022/06/28 10:31:16;;;;;;;;;;;;;;;22.51;52.71;102092.13;5075312;28;20288;-37
2022/06/28 10:33:42;;;;;;;;;;;;;;;22.66;52.24;102092.06;5075462;28;20261;-37
2022/06/28 10:36:17;;;;;;;;;;;;;;;22.78;53.19;102080.69;5075118;28;19920;-37
2022/06/28 10:39:02;;;;;;;;;;;;;;;22.90;51.03;102083.16;5075316;28;20242;-37
2022/06/28 10:41:46;;;;;;;;;;;;;;;22.96;51.18;102076.50;5076479;28;19912;-37
2022/06/28 10:44:13;;;;;;;;;;;;;;;23.06;52.90;102071.75;5075383;28;19935;-37
2022/06/28 10:46:39;;;;;;;;;;;;;;;23.22;51.92;102066.94;5075282;28;19966;-37
2022/06/28 10:49:06;;;;;;;;;;;;;;;23.39;51.99;102059.09;5074519;28;19919;-37
2022/06/28 10:51:31;;;;;;;;;;;;;;;23.50;49.93;102065.34;5075094;28;20291;-37
2022/06/28 10:54:06;;;;;;;;;;;;;;;23.53;48.44;102064.78;5074533;28;19913;-37
2022/06/28 10:56:37;;;;;;;;;;;;;;;23.44;49.55;102061.00;5075322;28;19913;-37
2022/06/28 10:59:08;;;;;;;;;;;;;;;23.45;48.07;102050.78;5074806;28;20386;-37
2022/06/28 11:01:39;;;;;;;;;;;;;;;23.51;48.35;102050.44;5075354;28;19916;-37
2022/06/28 11:04:19;;;;;;;;;;;;;;;23.54;49.91;102049.88;5074946;28;20250;-38
2022/06/28 11:06:49;;;;;;;;;;;;;;;23.58;51.90;102052.88;5074560;28;19916;-37
2022/06/28 11:09:32;;;;;;;;;;;;;;;23.47;44.94;102051.28;5074340;28;19916;-37
2022/06/28 11:12:04;;;;;;;;;;;;;;;23.45;50.62;102045.25;5074137;28;20375;-37
2022/06/28 11:14:30;;;;;;;;;;;;;;;23.41;49.43;102042.25;5074344;28;19944;-37
2022/06/28 11:16:56;;;;;;;;;;;;;;;23.60;48.96;102034.06;5074382;28;19913;-37
2022/06/28 11:19:22;;;;;;;;;;;;;;;23.74;49.10;102018.50;5073918;28;19961;-37
2022/06/28 11:21:48;;;;;;;;;;;;;;;23.95;51.03;102023.81;5074760;28;19956;-37
2022/06/28 11:24:14;;;;;;;;;;;;;;;24.15;49.11;102021.63;5074156;28;19935;-37
2022/06/28 11:29:23;;;;;;;;;;;;;;;24.40;49.03;102025.25;5074297;28;19939;-37
2022/06/28 11:31:48;;;;;;;;;;;;;;;24.44;48.66;102022.72;5074248;28;19912;-37
2022/06/28 11:34:21;;;;;;;;;;;;;;;24.42;45.71;102020.25;5073994;28;19916;-37
2022/06/28 11:36:46;;;;;;;;;;;;;;;24.45;45.93;102013.28;5073970;28;20008;-37
2022/06/28 11:39:22;;;;;;;;;;;;;;;24.48;44.64;102018.25;5073883;28;20342;-37
2022/06/28 11:41:48;;;;;;;;;;;;;;;24.59;47.75;102009.50;5073633;28;19965;-37
2022/06/28 11:44:14;;;;;;;;;;;;;;;24.71;46.89;102002.72;5073843;28;20227;-37
2022/06/28 11:46:39;;;;;;;;;;;;;;;24.81;43.32;102005.34;5073933;28;20007;-37
2022/06/28 11:49:05;;;;;;;;;;;;;;;24.90;47.52;102006.31;5073904;28;19913;-37
2022/06/28 11:51:31;;;;;;;;;;;;;;;24.98;45.58;102005.63;5073761;28;19912;-37
2022/06/28 11:53:57;;;;;;;;;;;;;;;25.09;45.06;102006.34;5073635;28;19919;-37
2022/06/28 11:56:22;;;;;;;;;;;;;;;25.24;46.17;102008.84;5074666;28;20086;-37
2022/06/28 11:58:48;;;;;;;;;;;;;;;25.34;42.89;101999.56;5073672;28;20007;-37
2022/06/28 12:01:14;;;;;;;;;;;;;;;25.41;45.89;101998.03;5073870;28;19912;-37
2022/06/28 12:03:42;;;;;;;;;;;;;;;25.54;47.57;102001.16;5073751;28;19920;-37
2022/06/28 12:06:11;;;;;;;;;;;;;;;25.43;44.29;102000.50;5073557;28;20388;-37
2022/06/28 12:08:43;;;;;;;;;;;;;;;25.40;41.67;101996.38;5073387;28;20389;-37
2022/06/28 12:11:23;;;;;;;;;;;;;;;25.00;45.01;101997.84;5073663;28;19919;-37
2022/06/28 12:13:48;;;;;;;;;;;;;;;24.74;46.10;102005.69;5072843;28;19912;-37
2022/06/28 12:16:14;;;;;;;;;;;;;;;24.92;45.04;102001.28;5073125;28;19972;-37
2022/06/28 12:18:56;;;;;;;;;;;;;;;25.09;45.68;101995.28;5073713;28;19920;-37
2022/06/28 12:21:21;;;;;;;;;;;;;;;25.19;45.64;101989.56;5073400;28;19919;-37
2022/06/28 12:23:48;;;;;;;;;;;;;;;25.42;43.51;101985.81;5073618;28;19912;-37
2022/06/28 12:26:13;;;;;;;;;;;;;;;25.63;44.95;101991.00;5073102;28;20364;-37
2022/06/28 12:28:38;;;;;;;;;;;;;;;25.78;42.27;101992.72;5072573;28;19999;-37
2022/06/28 12:31:03;;;;;;;;;;;;;;;25.89;43.86;101992.19;5073467;28;19912;-37
2022/06/28 12:33:28;;;;;;;;;;;;;;;25.70;41.27;101988.66;5073646;28;19935;-37
2022/06/28 12:35:54;;;;;;;;;;;;;;;25.68;44.46;101991.72;5073525;28;20000;-37
2022/06/28 12:38:19;;;;;;;;;;;;;;;25.80;44.45;101993.22;5073796;28;19966;-37
2022/06/28 12:40:44;;;;;;;;;;;;;;;25.86;44.55;101994.75;5073561;28;19935;-37
2022/06/28 12:43:09;;;;;;;;;;;;;;;25.84;43.16;101986.75;5072945;28;19912;-37
2022/06/28 12:45:34;;;;;;;;;;;;;;;25.45;39.12;101981.63;5073281;28;19952;-37